Time;durP1;ratioP1;P1;durP2;ratioP2;P2;SDS_P1;SDS_P2;PMS_P1;PMS_P2;Temp;Humidity;BMP_temperature;BMP_pressure;BME280_temperature;BME280_humidity;BME280_pressure;Samples;Min_cycle;Max_cycle;Signal;HPM_P1;HPM_P2
2021/12/01 00:01:41;;;;;;;;;;;;;;;-2.17;73.78;95042.16;5054365;28;966;-53
2021/12/01 00:04:07;;;;;;;;;;;;;;;-2.13;74.75;95038.44;5053841;28;1096;-54
2021/12/01 00:06:34;;;;;;;;;;;;;;;-2.09;75.02;95031.25;5054729;28;965;-53
2021/12/01 00:09:01;;;;;;;;;;;;;;;-2.27;74.17;95031.34;5054150;28;1021;-53
2021/12/01 00:11:27;;;;;;;;;;;;;;;-2.39;74.96;95026.78;5054165;28;1056;-53
2021/12/01 00:13:53;;;;;;;;;;;;;;;-2.44;74.16;95034.91;5053415;28;1092;-53
2021/12/01 00:16:19;;;;;;;;;;;;;;;-2.41;75.25;95044.38;5054170;28;1914;-53
2021/12/01 00:18:45;;;;;;;;;;;;;;;-2.37;76.21;95041.50;5053409;28;1178;-53
2021/12/01 00:21:11;;;;;;;;;;;;;;;-2.37;76.42;95036.28;5054153;28;1013;-53
2021/12/01 00:23:37;;;;;;;;;;;;;;;-2.26;76.45;95033.03;5053866;28;1046;-53
2021/12/01 00:26:04;;;;;;;;;;;;;;;-2.38;73.31;95031.94;5054028;28;1021;-53
2021/12/01 00:28:30;;;;;;;;;;;;;;;-2.45;74.77;95042.84;5053421;28;1016;-54
2021/12/01 00:30:57;;;;;;;;;;;;;;;-2.53;75.38;95029.34;5053580;28;1046;-53
2021/12/01 00:33:23;;;;;;;;;;;;;;;-2.70;75.22;95035.50;5053261;28;1034;-53
2021/12/01 00:35:50;;;;;;;;;;;;;;;-2.58;77.72;95046.16;5053901;28;1053;-53
2021/12/01 00:38:16;;;;;;;;;;;;;;;-2.46;76.67;95036.78;5053225;28;1968;-53
2021/12/01 00:40:42;;;;;;;;;;;;;;;-2.28;77.05;95018.34;5053419;28;1044;-53
2021/12/01 00:43:15;;;;;;;;;;;;;;;-2.32;77.22;95043.03;5053210;28;954;-53
2021/12/01 00:45:49;;;;;;;;;;;;;;;-2.27;76.47;95033.16;5053399;28;1866;-53
2021/12/01 00:48:18;;;;;;;;;;;;;;;-2.17;76.19;95048.22;5052988;28;1887;-53
2021/12/01 00:50:45;;;;;;;;;;;;;;;-2.14;76.36;95028.03;5053674;28;1177;-53
2021/12/01 00:53:12;;;;;;;;;;;;;;;-2.18;74.94;95040.50;5053166;28;1032;-53
2021/12/01 00:55:39;;;;;;;;;;;;;;;-2.41;75.18;95045.25;5053090;28;1050;-53
2021/12/01 00:58:06;;;;;;;;;;;;;;;-2.43;75.70;95031.38;5052140;28;1993;-53
2021/12/01 01:00:32;;;;;;;;;;;;;;;-2.43;74.49;95033.13;5052872;28;2070;-53
2021/12/01 01:02:59;;;;;;;;;;;;;;;-2.38;75.80;95021.47;5053049;28;1211;-53
2021/12/01 01:05:25;;;;;;;;;;;;;;;-2.31;76.05;95023.78;5053075;28;998;-53
2021/12/01 01:07:52;;;;;;;;;;;;;;;-2.28;76.91;95036.69;5053370;28;1041;-53
2021/12/01 01:18:23;;;;;;;;;;;;;;;-2.48;75.29;95015.09;5052491;28;1190;-53
2021/12/01 01:20:50;;;;;;;;;;;;;;;-2.55;75.85;95016.34;5052582;28;1894;-53
2021/12/01 01:23:16;;;;;;;;;;;;;;;-2.58;75.65;95006.91;5052550;28;1054;-53
2021/12/01 01:25:42;;;;;;;;;;;;;;;-2.65;74.39;95007.31;5052406;28;1080;-53
2021/12/01 01:28:08;;;;;;;;;;;;;;;-2.65;76.30;95000.31;5052665;28;1027;-53
2021/12/01 01:30:34;;;;;;;;;;;;;;;-2.61;75.50;95006.22;5052662;28;981;-53
2021/12/01 01:33:00;;;;;;;;;;;;;;;-2.66;74.76;95014.31;5052565;28;1100;-53
2021/12/01 01:35:26;;;;;;;;;;;;;;;-2.64;74.62;95019.47;5052363;28;1869;-53
2021/12/01 01:37:52;;;;;;;;;;;;;;;-2.61;75.98;95033.22;5052434;28;1992;-53
2021/12/01 01:40:18;;;;;;;;;;;;;;;-2.49;75.78;95042.19;5051950;28;1206;-53
2021/12/01 01:42:44;;;;;;;;;;;;;;;-2.47;74.41;95039.47;5052567;28;1092;-53
2021/12/01 01:45:10;;;;;;;;;;;;;;;-2.82;73.36;95053.56;5052398;28;990;-53
2021/12/01 01:47:46;;;;;;;;;;;;;;;-3.06;74.20;95041.81;5052830;28;1002;-53
2021/12/01 01:50:26;;;;;;;;;;;;;;;-3.03;74.80;95045.09;5052093;28;1019;-53
2021/12/01 01:52:52;;;;;;;;;;;;;;;-2.82;75.97;95044.88;5052815;28;950;-53
2021/12/01 01:55:18;;;;;;;;;;;;;;;-2.73;75.42;95033.94;5051945;28;1337;-53
2021/12/01 01:57:44;;;;;;;;;;;;;;;-2.89;74.17;95027.81;5052392;28;1910;-53
2021/12/01 02:00:11;;;;;;;;;;;;;;;-3.00;74.53;95025.78;5051962;28;1017;-53
2021/12/01 02:02:37;;;;;;;;;;;;;;;-2.84;76.98;95015.34;5052494;28;1032;-53
2021/12/01 02:05:03;;;;;;;;;;;;;;;-2.63;76.67;95021.16;5051871;28;962;-53
2021/12/01 02:07:29;;;;;;;;;;;;;;;-2.55;75.46;95011.94;5052289;28;1036;-53
2021/12/01 02:09:55;;;;;;;;;;;;;;;-2.67;73.98;95004.78;5054752;28;1039;-53
2021/12/01 02:12:21;;;;;;;;;;;;;;;-2.71;74.69;95010.25;5055993;28;1109;-54
2021/12/01 02:14:47;;;;;;;;;;;;;;;-2.84;74.74;95010.13;5056152;28;981;-53
2021/12/01 02:17:13;;;;;;;;;;;;;;;-2.85;75.43;94997.94;5056388;28;1914;-53
2021/12/01 02:19:39;;;;;;;;;;;;;;;-2.84;74.59;94999.66;5055608;28;1269;-53
2021/12/01 02:22:05;;;;;;;;;;;;;;;-2.63;75.66;95018.56;5056361;28;1044;-53
2021/12/01 02:24:31;;;;;;;;;;;;;;;-2.56;76.82;95023.38;5055637;28;1957;-53
2021/12/01 02:26:57;;;;;;;;;;;;;;;-2.41;75.91;95018.19;5056291;28;1037;-53
2021/12/01 02:29:24;;;;;;;;;;;;;;;-2.48;75.14;95040.44;5055650;28;1895;-53
2021/12/01 02:31:51;;;;;;;;;;;;;;;-2.53;75.95;95052.91;5056051;28;1060;-53
2021/12/01 02:34:18;;;;;;;;;;;;;;;-2.66;75.39;95043.09;5055795;28;1036;-53
2021/12/01 02:36:45;;;;;;;;;;;;;;;-2.60;76.17;95039.31;5055937;28;1901;-53
2021/12/01 02:39:13;;;;;;;;;;;;;;;-2.62;75.49;95035.94;5055720;28;1021;-53
2021/12/01 02:41:39;;;;;;;;;;;;;;;-2.85;75.27;95032.78;5055733;28;1071;-53
2021/12/01 02:44:06;;;;;;;;;;;;;;;-2.79;76.22;95015.91;5055484;28;1882;-53
2021/12/01 02:46:32;;;;;;;;;;;;;;;-2.68;76.27;94999.63;5055865;28;1044;-53
2021/12/01 02:48:58;;;;;;;;;;;;;;;-2.55;76.43;95006.72;5055509;28;1037;-53
2021/12/01 02:51:28;;;;;;;;;;;;;;;-2.47;76.92;95006.28;5055609;28;1017;-53
2021/12/01 02:53:54;;;;;;;;;;;;;;;-2.52;74.85;95002.22;5055690;28;982;-53
2021/12/01 02:56:24;;;;;;;;;;;;;;;-2.73;74.72;95002.53;5055403;28;1913;-53
2021/12/01 02:58:50;;;;;;;;;;;;;;;-2.73;74.17;95004.28;5055373;28;1108;-53
2021/12/01 03:01:21;;;;;;;;;;;;;;;-2.91;75.15;95016.59;5054992;28;1059;-53
2021/12/01 03:03:47;;;;;;;;;;;;;;;-2.96;76.36;95029.91;5055445;28;1033;-53
2021/12/01 03:06:13;;;;;;;;;;;;;;;-2.77;76.96;95011.44;5054943;28;970;-53
2021/12/01 03:08:40;;;;;;;;;;;;;;;-2.67;77.21;95022.28;5055372;28;1012;-54
2021/12/01 03:11:06;;;;;;;;;;;;;;;-2.63;76.57;95024.63;5054653;28;1037;-53
2021/12/01 03:16:55;;;;;;;;;;;;;;;-2.53;76.20;95016.25;4395702;28;2209;-53
2021/12/01 03:19:21;;;;;;;;;;;;;;;-2.48;75.54;95015.09;5055002;28;1280;-53
2021/12/01 03:21:47;;;;;;;;;;;;;;;-2.54;75.73;95023.28;5053974;28;1046;-53
2021/12/01 03:24:13;;;;;;;;;;;;;;;-2.72;73.66;95025.13;5054917;28;1034;-53
2021/12/01 03:26:39;;;;;;;;;;;;;;;-3.04;74.61;95030.31;5055135;28;1037;-53
2021/12/01 03:29:06;;;;;;;;;;;;;;;-3.06;74.86;95042.63;5055058;28;1033;-53
2021/12/01 03:31:32;;;;;;;;;;;;;;;-3.06;74.82;95029.56;5054961;28;957;-53
2021/12/01 03:33:58;;;;;;;;;;;;;;;-3.18;74.23;95048.53;5054968;28;1016;-53
2021/12/01 03:36:24;;;;;;;;;;;;;;;-3.24;75.08;95054.09;5054189;28;1914;-53
2021/12/01 03:38:50;;;;;;;;;;;;;;;-3.18;74.96;95049.38;5054749;28;1004;-53
2021/12/01 03:41:16;;;;;;;;;;;;;;;-3.20;74.47;95043.38;5054099;28;1172;-53
2021/12/01 03:43:42;;;;;;;;;;;;;;;-3.42;74.70;95033.19;5054835;28;1029;-53
2021/12/01 03:46:08;;;;;;;;;;;;;;;-3.39;75.78;95022.59;5054495;28;969;-53
2021/12/01 03:48:34;;;;;;;;;;;;;;;-3.20;75.99;95021.63;5054814;28;1041;-53
2021/12/01 03:51:00;;;;;;;;;;;;;;;-3.07;75.81;95009.59;5053999;28;1058;-53
2021/12/01 03:53:26;;;;;;;;;;;;;;;-3.01;76.51;94996.16;5054748;28;1049;-53
2021/12/01 03:55:53;;;;;;;;;;;;;;;-2.91;76.04;94993.06;5054107;28;1001;-53
2021/12/01 03:58:19;;;;;;;;;;;;;;;-2.81;75.03;95009.94;5054509;28;1906;-53
2021/12/01 04:00:46;;;;;;;;;;;;;;;-3.11;74.92;95012.44;5053897;28;1037;-53
2021/12/01 04:03:12;;;;;;;;;;;;;;;-3.24;75.28;95023.56;5054580;28;977;-53
2021/12/01 04:05:38;;;;;;;;;;;;;;;-3.25;75.92;95029.69;5053925;28;1034;-53
2021/12/01 04:08:06;;;;;;;;;;;;;;;-3.10;76.08;95045.50;5054471;28;1045;-53
2021/12/01 04:10:32;;;;;;;;;;;;;;;-2.99;76.46;95051.03;5053657;28;1891;-53
2021/12/01 04:12:58;;;;;;;;;;;;;;;-2.93;75.63;95055.09;5054361;28;1053;-53
2021/12/01 04:15:24;;;;;;;;;;;;;;;-2.99;74.69;95049.25;5053707;28;1081;-52
2021/12/01 04:17:50;;;;;;;;;;;;;;;-3.25;74.90;95039.31;5054101;28;1899;-53
2021/12/01 04:20:16;;;;;;;;;;;;;;;-3.38;75.88;95045.22;5053648;28;1293;-53
2021/12/01 04:22:43;;;;;;;;;;;;;;;-3.26;76.21;95055.91;5054213;28;1041;-53
2021/12/01 04:25:10;;;;;;;;;;;;;;;-3.35;75.00;95068.56;5053545;28;1088;-53
2021/12/01 04:27:36;;;;;;;;;;;;;;;-3.39;76.08;95066.19;5053858;28;1041;-53
2021/12/01 04:30:03;;;;;;;;;;;;;;;-3.36;76.25;95061.66;5053773;28;1056;-53
2021/12/01 04:32:29;;;;;;;;;;;;;;;-3.20;76.68;95061.69;5053755;28;1179;-53
2021/12/01 04:34:57;;;;;;;;;;;;;;;-3.17;76.84;95051.06;5053949;28;1040;-53
2021/12/01 04:37:24;;;;;;;;;;;;;;;-3.17;74.74;95043.22;5053341;28;1991;-53
2021/12/01 04:39:50;;;;;;;;;;;;;;;-3.62;74.26;95031.63;5053718;28;1060;-53
2021/12/01 04:42:17;;;;;;;;;;;;;;;-3.79;75.48;95044.69;5053265;28;1029;-53
2021/12/01 04:44:43;;;;;;;;;;;;;;;-3.66;75.84;95052.75;5053731;28;966;-53
2021/12/01 04:47:14;;;;;;;;;;;;;;;-3.57;75.64;95057.50;5053239;28;1057;-53
2021/12/01 04:49:40;;;;;;;;;;;;;;;-3.62;76.13;95055.13;5053449;28;982;-53
2021/12/01 04:52:08;;;;;;;;;;;;;;;-3.52;77.35;95063.34;5052944;28;1021;-53
2021/12/01 04:54:34;;;;;;;;;;;;;;;-3.47;75.76;95053.53;5053508;28;876;-53
2021/12/01 04:57:01;;;;;;;;;;;;;;;-3.31;75.06;95053.56;5052996;28;1910;-53
2021/12/01 04:59:27;;;;;;;;;;;;;;;-3.34;74.58;95043.25;5053504;28;1026;-53
2021/12/01 05:01:55;;;;;;;;;;;;;;;-3.43;74.47;95039.34;5052873;28;1141;-54
2021/12/01 05:04:22;;;;;;;;;;;;;;;-3.42;75.24;95054.09;5053254;28;1061;-54
2021/12/01 05:06:48;;;;;;;;;;;;;;;-3.50;75.24;95051.03;5052649;28;1105;-53
2021/12/01 05:09:14;;;;;;;;;;;;;;;-3.53;74.76;95043.34;5052914;28;1053;-53
2021/12/01 05:11:40;;;;;;;;;;;;;;;-3.42;75.61;95048.88;5052656;28;1025;-53
2021/12/01 05:14:06;;;;;;;;;;;;;;;-3.34;75.84;95048.47;5052947;28;1060;-53
2021/12/01 05:16:35;;;;;;;;;;;;;;;-3.33;76.32;95047.56;5052292;28;1985;-53
2021/12/01 05:19:01;;;;;;;;;;;;;;;-3.23;76.20;95045.31;5053003;28;1253;-53
2021/12/01 05:21:27;;;;;;;;;;;;;;;-3.17;75.85;95045.84;5052762;28;942;-53
2021/12/01 05:23:53;;;;;;;;;;;;;;;-3.19;75.73;95026.78;5053125;28;993;-53
2021/12/01 05:26:19;;;;;;;;;;;;;;;-3.27;74.58;95033.31;5052652;28;970;-53
2021/12/01 05:28:45;;;;;;;;;;;;;;;-3.62;74.26;95051.69;5052963;28;1060;-53
2021/12/01 05:31:12;;;;;;;;;;;;;;;-3.71;73.90;95058.22;5052494;28;957;-53
2021/12/01 05:33:39;;;;;;;;;;;;;;;-3.69;74.76;95063.38;5053029;28;973;-52
2021/12/01 05:36:05;;;;;;;;;;;;;;;-3.81;74.40;95070.06;5052139;28;1910;-53
2021/12/01 05:38:31;;;;;;;;;;;;;;;-3.65;75.81;95076.19;5052627;28;1026;-53
2021/12/01 05:40:57;;;;;;;;;;;;;;;-3.36;76.31;95081.69;5052465;28;969;-53
2021/12/01 05:43:23;;;;;;;;;;;;;;;-3.16;75.88;95091.16;5052150;28;1030;-53
2021/12/01 05:45:50;;;;;;;;;;;;;;;-3.01;75.92;95082.50;5052400;28;1254;-53
2021/12/01 05:48:16;;;;;;;;;;;;;;;-3.05;75.12;95085.38;5052318;28;1173;-53
2021/12/01 05:50:45;;;;;;;;;;;;;;;-2.97;76.06;95078.78;5052149;28;1108;-53
2021/12/01 05:53:11;;;;;;;;;;;;;;;-2.82;77.32;95074.50;5052222;28;1296;-54
2021/12/01 05:55:37;;;;;;;;;;;;;;;-2.72;76.78;95064.38;5052498;28;1064;-53
2021/12/01 05:58:03;;;;;;;;;;;;;;;-2.70;76.41;95080.00;5052334;28;1973;-54
2021/12/01 06:00:29;;;;;;;;;;;;;;;-2.68;76.83;95079.00;5052300;28;1016;-53
2021/12/01 06:02:55;;;;;;;;;;;;;;;-2.52;74.40;95086.88;5052080;28;1060;-53
2021/12/01 06:05:22;;;;;;;;;;;;;;;-2.61;74.46;95101.28;5052192;28;974;-53
2021/12/01 06:07:48;;;;;;;;;;;;;;;-2.43;75.78;95114.31;5052218;28;985;-53
2021/12/01 06:10:15;;;;;;;;;;;;;;;-2.16;73.90;95118.03;5052293;28;974;-53
2021/12/01 06:12:42;;;;;;;;;;;;;;;-2.13;73.84;95113.56;5052158;28;985;-53
2021/12/01 06:15:10;;;;;;;;;;;;;;;-2.02;74.80;95103.31;5052228;28;1085;-54
2021/12/01 06:17:39;;;;;;;;;;;;;;;-1.92;74.96;95099.25;5052090;28;1906;-53
2021/12/01 06:20:06;;;;;;;;;;;;;;;-1.74;74.92;95109.63;5052300;28;1214;-53
2021/12/01 06:22:32;;;;;;;;;;;;;;;-1.72;74.47;95116.47;5052255;28;1008;-54
2021/12/01 06:24:58;;;;;;;;;;;;;;;-1.70;73.77;95114.59;5052399;28;1096;-54
2021/12/01 06:27:25;;;;;;;;;;;;;;;-1.96;74.19;95119.53;5051782;28;1029;-54
2021/12/01 06:29:52;;;;;;;;;;;;;;;-2.18;74.88;95135.63;5052158;28;974;-54
2021/12/01 06:32:18;;;;;;;;;;;;;;;-2.26;74.79;95136.97;5051993;28;1021;-54
2021/12/01 06:34:44;;;;;;;;;;;;;;;-0.54;71.58;95136.66;5052232;28;978;-53
2021/12/01 06:37:10;;;;;;;;;;;;;;;-0.75;70.26;95139.66;5051851;28;1987;-53
2021/12/01 06:39:36;;;;;;;;;;;;;;;-0.79;70.70;95132.91;5052176;28;1026;-53
2021/12/01 06:42:02;;;;;;;;;;;;;;;-1.10;71.81;95134.75;5051634;28;1033;-54
2021/12/01 06:44:30;;;;;;;;;;;;;;;-1.13;71.02;95134.91;5051809;28;1073;-54
2021/12/01 06:46:57;;;;;;;;;;;;;;;-0.61;70.81;95130.91;5051864;28;1029;-54
2021/12/01 06:49:23;;;;;;;;;;;;;;;-0.88;71.05;95144.78;5052023;28;974;-53
2021/12/01 06:51:49;;;;;;;;;;;;;;;2.68;63.39;95145.66;5051628;28;1029;-53
2021/12/01 06:54:15;;;;;;;;;;;;;;;5.65;51.19;95148.56;5051879;28;1014;-54
2021/12/01 06:56:41;;;;;;;;;;;;;;;3.81;54.68;95153.00;5053883;28;1985;-53
2021/12/01 06:59:07;;;;;;;;;;;;;;;4.92;53.29;95141.50;5055666;28;961;-51
2021/12/01 07:01:33;;;;;;;;;;;;;;;7.28;46.62;95145.78;5055392;28;1054;-51
2021/12/01 07:03:59;;;;;;;;;;;;;;;7.94;44.33;95142.28;5055221;28;974;-50
2021/12/01 07:06:25;;;;;;;;;;;;;;;8.95;41.69;95132.56;5055348;28;1065;-51
2021/12/01 07:08:52;;;;;;;;;;;;;;;9.77;40.04;95135.06;5055275;28;1045;-50
2021/12/01 07:11:18;;;;;;;;;;;;;;;9.60;39.96;95147.47;5055086;28;1097;-51
2021/12/01 07:13:44;;;;;;;;;;;;;;;7.76;44.42;95150.19;5054841;28;1026;-52
2021/12/01 07:16:10;;;;;;;;;;;;;;;4.59;52.08;95140.63;5055071;28;2358;-52
2021/12/01 07:18:36;;;;;;;;;;;;;;;2.80;57.47;95138.59;5054592;28;1178;-51
2021/12/01 07:21:04;;;;;;;;;;;;;;;2.14;61.35;95130.22;5055296;28;1038;-51
2021/12/01 07:23:32;;;;;;;;;;;;;;;1.79;63.02;95145.94;5054964;28;1048;-51
2021/12/01 07:25:58;;;;;;;;;;;;;;;1.92;62.43;95165.22;5055221;28;977;-50
2021/12/01 07:28:24;;;;;;;;;;;;;;;1.89;63.63;95181.25;5054679;28;1131;-52
2021/12/01 07:30:50;;;;;;;;;;;;;;;1.65;65.31;95182.03;5055215;28;969;-52
2021/12/01 07:33:16;;;;;;;;;;;;;;;1.62;66.46;95184.03;5054876;28;958;-52
2021/12/01 07:35:42;;;;;;;;;;;;;;;1.66;67.18;95167.03;5055083;28;1009;-52
2021/12/01 07:38:08;;;;;;;;;;;;;;;1.88;66.39;95180.41;5054817;28;1981;-52
2021/12/01 07:40:34;;;;;;;;;;;;;;;2.07;65.76;95185.22;5054778;28;974;-52
2021/12/01 07:43:00;;;;;;;;;;;;;;;2.00;65.34;95180.50;5054296;28;1551;-52
2021/12/01 07:45:27;;;;;;;;;;;;;;;1.92;65.28;95159.94;5054593;28;1088;-51
2021/12/01 07:47:53;;;;;;;;;;;;;;;1.81;65.27;95150.16;5054186;28;966;-51
2021/12/01 07:50:19;;;;;;;;;;;;;;;1.53;65.44;95140.69;5054851;28;1004;-51
2021/12/01 07:52:45;;;;;;;;;;;;;;;1.21;68.28;95153.44;5054519;28;1001;-52
2021/12/01 07:55:11;;;;;;;;;;;;;;;1.10;68.54;95157.66;5054632;28;981;-51
2021/12/01 07:57:38;;;;;;;;;;;;;;;0.96;70.19;95166.47;5054005;28;1987;-51
2021/12/01 08:00:04;;;;;;;;;;;;;;;1.14;69.86;95180.19;5054672;28;966;-52
2021/12/01 08:02:30;;;;;;;;;;;;;;;1.54;68.54;95184.56;5054380;28;974;-52
2021/12/01 08:04:58;;;;;;;;;;;;;;;2.35;66.16;95162.13;5054483;28;981;-52
2021/12/01 08:07:27;;;;;;;;;;;;;;;2.08;65.74;95165.81;5053673;28;1864;-52
2021/12/01 08:09:53;;;;;;;;;;;;;;;1.65;66.44;95167.97;5054249;28;993;-52
2021/12/01 08:12:19;;;;;;;;;;;;;;;1.51;67.95;95182.13;5053802;28;1017;-52
2021/12/01 08:14:45;;;;;;;;;;;;;;;1.39;69.15;95178.53;5053901;28;1174;-52
2021/12/01 08:17:11;;;;;;;;;;;;;;;1.40;69.37;95171.47;5053539;28;1993;-52
2021/12/01 08:19:37;;;;;;;;;;;;;;;1.15;67.96;95167.88;5053577;28;1217;-52
2021/12/01 08:22:03;;;;;;;;;;;;;;;1.21;68.63;95171.88;5054244;28;969;-52
2021/12/01 08:24:32;;;;;;;;;;;;;;;1.15;68.58;95170.50;5053989;28;977;-52
2021/12/01 08:26:58;;;;;;;;;;;;;;;1.29;69.02;95159.88;5053641;28;1097;-52
2021/12/01 08:29:24;;;;;;;;;;;;;;;1.30;69.63;95161.56;5053454;28;1001;-52
2021/12/01 08:31:49;;;;;;;;;;;;;;;1.42;69.72;95159.88;5053735;28;1038;-52
2021/12/01 08:34:16;;;;;;;;;;;;;;;1.48;68.23;95161.22;5053294;28;1050;-52
2021/12/01 08:36:41;;;;;;;;;;;;;;;1.50;69.19;95167.25;5053635;28;1997;-52
2021/12/01 08:39:08;;;;;;;;;;;;;;;1.47;68.08;95165.66;5053306;28;1092;-51
2021/12/01 08:41:34;;;;;;;;;;;;;;;1.58;67.12;95149.13;5053334;28;1089;-52
2021/12/01 08:44:00;;;;;;;;;;;;;;;1.60;66.87;95159.56;5053068;28;1029;-52
2021/12/01 08:46:26;;;;;;;;;;;;;;;1.71;67.53;95163.13;5053418;28;1229;-52
2021/12/01 08:48:52;;;;;;;;;;;;;;;1.88;66.83;95153.22;5053073;28;1105;-52
2021/12/01 08:51:18;;;;;;;;;;;;;;;2.99;63.29;95159.22;5053592;28;1020;-52
2021/12/01 08:53:44;;;;;;;;;;;;;;;6.18;52.53;95158.19;5053198;28;1024;-52
2021/12/01 08:56:11;;;;;;;;;;;;;;;7.46;49.46;95145.91;5053123;28;1886;-53
2021/12/01 08:58:37;;;;;;;;;;;;;;;7.56;48.00;95149.38;5052876;28;1914;-53
2021/12/01 09:01:03;;;;;;;;;;;;;;;7.89;47.20;95155.19;5053045;28;1080;-54
2021/12/01 09:03:29;;;;;;;;;;;;;;;8.65;45.76;95155.06;5053141;28;1013;-52
2021/12/01 09:05:55;;;;;;;;;;;;;;;9.90;43.39;95153.31;5053111;28;1030;-53
2021/12/01 09:08:22;;;;;;;;;;;;;;;11.08;40.99;95150.88;5052809;28;1057;-53
2021/12/01 09:10:52;;;;;;;;;;;;;;;11.46;40.23;95145.91;5052739;28;1117;-52
2021/12/01 09:13:19;;;;;;;;;;;;;;;13.11;37.49;95138.25;5052658;28;1045;-52
2021/12/01 09:15:45;;;;;;;;;;;;;;;13.47;35.69;95136.72;5052901;28;1305;-52
2021/12/01 09:18:11;;;;;;;;;;;;;;;13.79;36.00;95134.78;5051838;28;1918;-52
2021/12/01 09:20:37;;;;;;;;;;;;;;;15.19;33.07;95130.53;5053015;28;1325;-52
2021/12/01 09:23:03;;;;;;;;;;;;;;;17.36;29.93;95132.53;5052795;28;1068;-56
2021/12/01 09:25:30;;;;;;;;;;;;;;;19.51;27.55;95143.75;5052569;28;1065;-52
2021/12/01 09:27:56;;;;;;;;;;;;;;;20.53;26.33;95140.09;5052702;28;1072;-57
2021/12/01 09:30:23;;;;;;;;;;;;;;;21.49;24.65;95137.81;5052574;28;1043;-52
2021/12/01 09:32:49;;;;;;;;;;;;;;;21.68;24.33;95135.06;5052873;28;978;-52
2021/12/01 09:35:15;;;;;;;;;;;;;;;21.40;24.64;95134.56;5052570;28;1029;-53
2021/12/01 09:37:41;;;;;;;;;;;;;;;21.56;24.03;95124.13;5052645;28;1914;-52
2021/12/01 09:40:13;;;;;;;;;;;;;;;21.64;23.85;95127.38;5052089;28;975;-52
2021/12/01 09:42:42;;;;;;;;;;;;;;;21.66;23.78;95129.03;5052590;28;1100;-52
2021/12/01 09:45:09;;;;;;;;;;;;;;;21.86;23.03;95126.03;5052453;28;1012;-52
2021/12/01 09:47:35;;;;;;;;;;;;;;;22.44;22.37;95128.03;5052812;28;973;-52
2021/12/01 09:50:03;;;;;;;;;;;;;;;23.03;21.10;95128.06;5052128;28;1120;-53
2021/12/01 09:52:29;;;;;;;;;;;;;;;23.02;22.11;95126.34;5052597;28;996;-53
2021/12/01 09:54:55;;;;;;;;;;;;;;;22.44;23.04;95124.47;5052130;28;993;-53
2021/12/01 09:57:21;;;;;;;;;;;;;;;22.20;22.11;95119.00;5052770;28;1989;-53
2021/12/01 09:59:47;;;;;;;;;;;;;;;21.41;23.17;95119.06;5052357;28;981;-53
2021/12/01 10:02:14;;;;;;;;;;;;;;;19.91;25.59;95107.44;5052730;28;1045;-53
2021/12/01 10:04:40;;;;;;;;;;;;;;;16.78;29.38;95108.59;5052035;28;1070;-53
2021/12/01 10:07:14;;;;;;;;;;;;;;;13.39;34.03;95101.88;5052545;28;1041;-52
2021/12/01 10:09:42;;;;;;;;;;;;;;;11.17;39.97;95093.66;5051994;28;1032;-52
2021/12/01 10:12:08;;;;;;;;;;;;;;;11.09;40.05;95094.50;5052318;28;1041;-52
2021/12/01 10:14:34;;;;;;;;;;;;;;;12.13;38.58;95072.50;5051924;28;1081;-52
2021/12/01 10:17:00;;;;;;;;;;;;;;;15.47;33.74;95089.38;5052129;28;1979;-52
2021/12/01 10:19:28;;;;;;;;;;;;;;;19.26;27.64;95073.19;5051950;28;1222;-52
2021/12/01 10:21:54;;;;;;;;;;;;;;;21.24;25.03;95080.81;5052033;28;1497;-52
2021/12/01 10:24:24;;;;;;;;;;;;;;;21.96;23.84;95083.53;5051749;28;977;-52
2021/12/01 10:26:54;;;;;;;;;;;;;;;22.52;23.96;95078.66;5050957;28;977;-53
2021/12/01 10:29:22;;;;;;;;;;;;;;;22.62;23.47;95078.06;5052005;28;1045;-53
2021/12/01 10:31:51;;;;;;;;;;;;;;;22.40;24.03;95077.81;5056328;28;1108;-53
2021/12/01 10:34:17;;;;;;;;;;;;;;;20.51;25.68;95077.03;5055689;28;1024;-53
2021/12/01 10:36:45;;;;;;;;;;;;;;;18.21;28.36;95076.03;5055837;28;1984;-52
2021/12/01 10:39:11;;;;;;;;;;;;;;;15.62;32.38;95065.88;5055407;28;1056;-52
2021/12/01 10:41:38;;;;;;;;;;;;;;;13.38;36.61;95077.88;5055956;28;1036;-51
2021/12/01 10:44:11;;;;;;;;;;;;;;;11.81;39.96;95072.38;5055786;28;1040;-50
2021/12/01 10:46:43;;;;;;;;;;;;;;;10.92;42.55;95084.78;5055792;28;1053;-50
2021/12/01 10:49:09;;;;;;;;;;;;;;;9.74;44.97;95069.44;5055524;28;993;-55
2021/12/01 10:51:37;;;;;;;;;;;;;;;9.60;45.71;95061.19;5055838;28;970;-51
2021/12/01 10:54:04;;;;;;;;;;;;;;;9.79;47.37;95055.63;5055733;28;1226;-51
2021/12/01 10:56:30;;;;;;;;;;;;;;;9.56;46.90;95060.66;5055728;28;1991;-51
2021/12/01 10:59:08;;;;;;;;;;;;;;;9.53;47.95;95055.66;5055652;28;1045;-50
2021/12/01 11:01:34;;;;;;;;;;;;;;;8.99;48.92;95039.72;5055741;28;1025;-50
2021/12/01 11:04:00;;;;;;;;;;;;;;;9.01;48.92;95040.44;5055448;28;1100;-50
2021/12/01 11:06:27;;;;;;;;;;;;;;;9.01;49.46;95048.44;5054990;28;1033;-57
2021/12/01 11:08:58;;;;;;;;;;;;;;;8.74;50.69;95046.69;5055070;28;1029;-50
2021/12/01 11:11:25;;;;;;;;;;;;;;;8.70;51.08;95042.66;5055219;28;1017;-51
2021/12/01 11:13:51;;;;;;;;;;;;;;;8.65;51.78;95043.13;5055223;28;978;-51
2021/12/01 11:16:18;;;;;;;;;;;;;;;8.71;53.21;95049.66;5054860;28;1227;-51
2021/12/01 11:18:46;;;;;;;;;;;;;;;8.71;52.45;95052.31;5053951;28;1257;-51
2021/12/01 11:21:17;;;;;;;;;;;;;;;8.49;54.56;95045.59;5054816;28;1119;-51
2021/12/01 11:23:48;;;;;;;;;;;;;;;8.38;55.61;95042.16;5055187;28;1033;-51
2021/12/01 11:26:19;;;;;;;;;;;;;;;8.17;55.43;95044.22;5055030;28;1033;-51
2021/12/01 11:28:45;;;;;;;;;;;;;;;8.23;55.95;95040.13;5055048;28;1056;-51
2021/12/01 11:31:16;;;;;;;;;;;;;;;8.23;56.71;95040.97;5055202;28;955;-51
2021/12/01 11:33:46;;;;;;;;;;;;;;;8.26;56.62;95038.00;5055095;28;1032;-51
2021/12/01 11:36:19;;;;;;;;;;;;;;;8.06;57.73;95031.09;5055003;28;1128;-51
2021/12/01 11:38:53;;;;;;;;;;;;;;;8.31;57.01;95037.53;5054937;28;1076;-51
2021/12/01 11:41:19;;;;;;;;;;;;;;;8.19;57.25;95034.25;5053671;28;1891;-51
2021/12/01 11:43:46;;;;;;;;;;;;;;;8.30;57.75;95035.88;5054974;28;1076;-51
2021/12/01 11:46:13;;;;;;;;;;;;;;;8.17;59.10;95022.91;5054491;28;1118;-51
2021/12/01 11:48:47;;;;;;;;;;;;;;;8.30;58.38;95028.72;5054817;28;1041;-51
2021/12/01 11:51:22;;;;;;;;;;;;;;;8.18;58.58;95022.78;5054287;28;1052;-51
2021/12/01 11:53:48;;;;;;;;;;;;;;;8.24;58.66;95024.00;5054529;28;1033;-51
2021/12/01 11:56:14;;;;;;;;;;;;;;;8.31;58.97;95018.91;5054000;28;1062;-51
2021/12/01 11:58:40;;;;;;;;;;;;;;;8.26;59.51;95011.38;5054294;28;1910;-51
2021/12/01 12:01:06;;;;;;;;;;;;;;;8.40;59.08;95016.19;5054199;28;961;-50
2021/12/01 12:03:32;;;;;;;;;;;;;;;8.26;59.73;95018.53;5054200;28;1080;-50
2021/12/01 12:06:21;;;;;;;;;;;;;;;8.14;60.46;95016.06;5053936;28;1033;-50
2021/12/01 12:08:53;;;;;;;;;;;;;;;8.18;60.56;95006.78;5054162;28;1978;-51
2021/12/01 12:11:38;;;;;;;;;;;;;;;8.13;59.71;95011.72;5053545;28;1152;-51
2021/12/01 12:14:06;;;;;;;;;;;;;;;8.19;59.64;94997.81;5054274;28;1037;-50
2021/12/01 12:16:33;;;;;;;;;;;;;;;8.27;60.05;94994.41;5054209;28;1914;-50
2021/12/01 12:18:59;;;;;;;;;;;;;;;8.17;60.12;94983.78;5053899;28;1202;-50
2021/12/01 12:24:02;;;;;;;;;;;;;;;8.00;61.61;94984.63;5054002;28;966;-50
2021/12/01 12:26:32;;;;;;;;;;;;;;;7.95;62.41;94982.41;5053952;28;978;-50
2021/12/01 12:29:04;;;;;;;;;;;;;;;7.91;61.28;94985.50;5053871;28;1021;-50
2021/12/01 12:31:31;;;;;;;;;;;;;;;8.10;61.55;94988.06;5053468;28;1053;-50
2021/12/01 12:33:59;;;;;;;;;;;;;;;7.96;62.49;94969.94;5054340;28;977;-50
2021/12/01 12:36:36;;;;;;;;;;;;;;;7.92;62.35;94974.72;5053020;28;1989;-50
2021/12/01 12:39:04;;;;;;;;;;;;;;;7.96;61.83;94981.41;5053712;28;1887;-50
2021/12/01 12:41:30;;;;;;;;;;;;;;;7.86;63.01;94990.47;5053093;28;1096;-50
2021/12/01 12:44:16;;;;;;;;;;;;;;;7.62;63.33;94989.97;5053567;28;1890;-50
2021/12/01 12:46:59;;;;;;;;;;;;;;;7.64;63.00;94992.50;5052949;28;1929;-50
2021/12/01 12:49:35;;;;;;;;;;;;;;;7.55;62.57;94996.03;5053702;28;982;-50
2021/12/01 12:52:21;;;;;;;;;;;;;;;7.60;62.93;94997.28;5053012;28;1905;-50
2021/12/01 12:54:47;;;;;;;;;;;;;;;7.59;62.62;94992.97;5052222;28;1977;-50
2021/12/01 12:57:14;;;;;;;;;;;;;;;7.54;63.13;94989.06;5052966;28;1898;-50
2021/12/01 12:59:40;;;;;;;;;;;;;;;7.36;63.63;94996.94;5053512;28;1055;-50
2021/12/01 13:02:14;;;;;;;;;;;;;;;7.28;64.43;94991.53;5052981;28;958;-50
2021/12/01 13:04:47;;;;;;;;;;;;;;;7.14;65.35;94993.66;5053499;28;997;-50
2021/12/01 13:07:32;;;;;;;;;;;;;;;7.14;64.54;94990.19;5053059;28;981;-50
2021/12/01 13:10:02;;;;;;;;;;;;;;;7.13;64.57;94989.34;5053347;28;997;-50
2021/12/01 13:12:28;;;;;;;;;;;;;;;7.14;64.34;94991.00;5052941;28;1081;-50
2021/12/01 13:14:54;;;;;;;;;;;;;;;7.14;64.75;94984.84;5053187;28;977;-50
2021/12/01 13:17:20;;;;;;;;;;;;;;;7.16;64.42;94982.88;5052421;28;1910;-50